createdAt,value
2019-03-30T00:00:18.023Z,7.89
2019-03-30T00:02:28.888Z,7.80
2019-03-30T00:04:39.838Z,7.65
2019-03-30T00:06:50.784Z,7.64
2019-03-30T00:09:01.966Z,7.65
2019-03-30T00:11:12.893Z,7.54
2019-03-30T00:13:23.879Z,7.46
2019-03-30T00:15:34.712Z,7.39
2019-03-30T00:17:45.552Z,7.38
2019-03-30T00:19:56.407Z,7.34
2019-03-30T00:22:07.348Z,7.35
2019-03-30T00:24:18.226Z,7.38
2019-03-30T00:26:29.068Z,7.39
2019-03-30T00:28:39.898Z,7.41
2019-03-30T00:30:50.797Z,7.40
2019-03-30T00:33:01.698Z,7.37
2019-03-30T00:35:12.560Z,7.22
2019-03-30T00:37:23.391Z,7.22
2019-03-30T00:39:34.257Z,7.23
2019-03-30T00:41:45.095Z,7.20
2019-03-30T00:43:55.938Z,7.15
2019-03-30T00:46:06.789Z,7.17
2019-03-30T00:48:17.637Z,7.14
2019-03-30T00:50:28.607Z,7.09
2019-03-30T00:52:39.446Z,7.08
2019-03-30T00:54:50.295Z,7.06
2019-03-30T00:57:01.274Z,7.03
2019-03-30T00:59:12.222Z,6.96
2019-03-30T01:01:23.117Z,6.98
2019-03-30T01:03:33.944Z,6.98
2019-03-30T01:05:44.917Z,7.00
2019-03-30T01:07:55.752Z,7.00
2019-03-30T01:10:06.715Z,6.99
2019-03-30T01:12:17.559Z,6.94
2019-03-30T01:14:28.395Z,6.92
2019-03-30T01:16:39.321Z,6.86
2019-03-30T01:18:50.163Z,6.84
2019-03-30T01:21:01.134Z,6.89
2019-03-30T01:23:11.986Z,6.89
2019-03-30T01:25:22.827Z,6.87
2019-03-30T01:27:33.682Z,6.75
2019-03-30T01:29:44.629Z,6.55
2019-03-30T01:31:55.607Z,6.41
2019-03-30T01:34:06.440Z,6.39
2019-03-30T01:36:17.289Z,6.33
2019-03-30T01:38:28.166Z,6.21
2019-03-30T01:40:39.006Z,6.03
2019-03-30T01:42:49.860Z,6.02
2019-03-30T01:45:00.815Z,5.99
2019-03-30T01:47:11.669Z,5.93
2019-03-30T01:49:22.506Z,5.93
2019-03-30T01:51:33.342Z,5.92
2019-03-30T01:53:44.213Z,5.91
2019-03-30T01:55:55.042Z,5.89
2019-03-30T01:58:05.892Z,5.92
2019-03-30T02:00:16.929Z,5.96
2019-03-30T02:02:27.801Z,6.05
2019-03-30T02:04:38.668Z,6.04
2019-03-30T02:06:49.534Z,6.02
2019-03-30T02:09:00.389Z,5.87
2019-03-30T02:11:11.217Z,5.71
2019-03-30T02:13:22.094Z,5.63
2019-03-30T02:15:32.950Z,5.58
2019-03-30T02:17:43.828Z,5.63
2019-03-30T02:19:54.685Z,5.67
2019-03-30T02:22:05.521Z,5.70
2019-03-30T02:24:16.375Z,5.71
2019-03-30T02:26:27.416Z,5.67
2019-03-30T02:28:38.273Z,5.57
2019-03-30T02:30:49.124Z,5.50
2019-03-30T02:33:00.198Z,5.45
2019-03-30T02:35:11.110Z,5.40
2019-03-30T02:37:22.058Z,5.35
2019-03-30T02:39:32.898Z,5.42
2019-03-30T02:41:43.883Z,5.49
2019-03-30T02:43:54.742Z,5.52
2019-03-30T02:46:05.776Z,5.51
2019-03-30T02:48:16.621Z,5.50
2019-03-30T02:50:27.486Z,5.32
2019-03-30T02:52:38.322Z,5.28
2019-03-30T02:54:49.180Z,5.29
2019-03-30T02:57:00.019Z,5.24
2019-03-30T02:59:10.909Z,5.20
2019-03-30T03:01:21.767Z,5.20
2019-03-30T03:03:32.609Z,5.24
2019-03-30T03:05:43.572Z,5.26
2019-03-30T03:07:54.406Z,5.35
2019-03-30T03:10:07.663Z,5.43
2019-03-30T03:12:18.512Z,5.44
2019-03-30T03:14:29.464Z,5.42
2019-03-30T03:16:40.337Z,5.35
2019-03-30T03:18:51.161Z,5.27
2019-03-30T03:21:07.996Z,5.21
2019-03-30T03:23:14.914Z,5.15
2019-03-30T03:25:25.786Z,5.10
2019-03-30T03:27:36.725Z,5.09
2019-03-30T03:29:47.569Z,5.11
2019-03-30T03:31:58.422Z,5.12
2019-03-30T03:34:09.503Z,5.16
2019-03-30T03:36:20.354Z,5.17
2019-03-30T03:38:31.197Z,5.12
2019-03-30T03:40:42.051Z,5.11
2019-03-30T03:42:52.889Z,5.13
2019-03-30T03:45:06.140Z,5.10
2019-03-30T03:47:17.006Z,5.15
2019-03-30T03:49:27.846Z,5.16
2019-03-30T03:51:39.198Z,5.12
2019-03-30T03:53:50.241Z,5.12
2019-03-30T03:56:03.053Z,5.13
2019-03-30T03:58:14.277Z,4.97
2019-03-30T04:00:25.723Z,4.99
2019-03-30T04:02:36.845Z,4.86
2019-03-30T04:04:48.590Z,4.79
2019-03-30T04:07:00.072Z,4.72
2019-03-30T04:09:12.115Z,4.78
2019-03-30T04:11:23.092Z,4.83
2019-03-30T04:13:33.904Z,4.82
2019-03-30T04:15:44.867Z,4.88
2019-03-30T04:17:55.712Z,4.95
2019-03-30T04:20:06.656Z,4.97
2019-03-30T04:22:17.510Z,5.00
2019-03-30T04:24:28.346Z,5.07
2019-03-30T04:26:39.332Z,5.15
2019-03-30T04:28:50.409Z,5.15
2019-03-30T04:31:01.205Z,5.17
2019-03-30T04:33:12.065Z,5.16
2019-03-30T04:35:22.913Z,5.14
2019-03-30T04:37:33.781Z,5.16
2019-03-30T04:39:44.622Z,5.17
2019-03-30T04:41:55.478Z,5.18
2019-03-30T04:44:06.324Z,5.16
2019-03-30T04:46:17.168Z,5.12
2019-03-30T04:48:29.647Z,5.10
2019-03-30T04:50:40.710Z,5.01
2019-03-30T04:52:51.561Z,4.96
2019-03-30T04:55:04.508Z,4.92
2019-03-30T04:57:15.492Z,4.86
2019-03-30T04:59:26.368Z,4.84
2019-03-30T05:01:37.221Z,4.87
2019-03-30T05:03:48.080Z,4.84
2019-03-30T05:05:59.008Z,4.84
2019-03-30T05:08:09.970Z,4.79
2019-03-30T05:10:20.815Z,4.80
2019-03-30T05:12:31.637Z,4.80
2019-03-30T05:14:42.513Z,4.78
2019-03-30T05:16:53.383Z,4.85
2019-03-30T05:19:06.138Z,4.87
2019-03-30T05:21:17.143Z,4.94
2019-03-30T05:23:27.973Z,4.84
2019-03-30T05:25:38.846Z,4.88
2019-03-30T05:27:49.675Z,4.98
2019-03-30T05:30:00.602Z,5.16
2019-03-30T05:32:11.446Z,5.40
2019-03-30T05:34:22.297Z,5.61
2019-03-30T05:36:33.158Z,5.72
2019-03-30T05:38:44.017Z,5.84
2019-03-30T05:40:54.866Z,6.09
2019-03-30T05:43:05.778Z,6.40
2019-03-30T05:45:16.671Z,6.70
2019-03-30T05:47:27.511Z,6.90
2019-03-30T05:49:38.369Z,7.01
2019-03-30T05:51:49.254Z,7.10
2019-03-30T05:54:00.224Z,7.27
2019-03-30T05:56:11.181Z,7.60
2019-03-30T05:58:22.020Z,7.99
2019-03-30T06:00:32.995Z,8.30
2019-03-30T06:02:43.860Z,8.57
2019-03-30T06:04:54.947Z,8.74
2019-03-30T06:07:05.774Z,9.06
2019-03-30T06:09:16.646Z,9.30
2019-03-30T06:11:27.490Z,9.51
2019-03-30T06:13:38.331Z,9.79
2019-03-30T06:15:49.200Z,10.16
2019-03-30T06:18:00.052Z,10.52
2019-03-30T06:20:11.104Z,10.92
2019-03-30T06:22:21.953Z,11.30
2019-03-30T06:24:32.912Z,11.71
2019-03-30T06:26:43.760Z,12.14
2019-03-30T06:28:54.605Z,12.54
2019-03-30T06:31:05.578Z,12.91
2019-03-30T06:33:16.502Z,13.33
2019-03-30T06:35:27.374Z,13.65
2019-03-30T06:37:38.238Z,13.85
2019-03-30T06:39:49.076Z,14.14
2019-03-30T06:42:00.054Z,14.29
2019-03-30T06:44:11.005Z,14.59
2019-03-30T06:46:23.803Z,14.90
2019-03-30T06:48:36.251Z,15.07
2019-03-30T06:50:47.304Z,15.23
2019-03-30T06:52:58.890Z,15.39
2019-03-30T06:55:10.105Z,15.49
2019-03-30T06:57:20.954Z,15.66
2019-03-30T06:59:31.800Z,15.83
2019-03-30T07:01:42.911Z,15.89
2019-03-30T07:03:53.961Z,15.65
2019-03-30T07:06:05.339Z,15.85
2019-03-30T07:08:16.277Z,16.03
2019-03-30T07:10:27.231Z,16.26
2019-03-30T07:12:38.884Z,16.43
2019-03-30T07:14:52.038Z,16.60
2019-03-30T07:17:03.103Z,16.91
2019-03-30T07:19:13.963Z,17.09
2019-03-30T07:21:24.798Z,17.35
2019-03-30T07:23:35.659Z,17.44
2019-03-30T07:25:46.526Z,17.54
2019-03-30T07:27:57.530Z,17.70
2019-03-30T07:30:09.186Z,17.70
2019-03-30T07:32:20.213Z,17.75
2019-03-30T07:34:31.080Z,17.84
2019-03-30T07:36:42.032Z,17.87
2019-03-30T07:38:52.886Z,18.03
2019-03-30T07:41:03.923Z,18.03
2019-03-30T07:43:14.917Z,17.93
2019-03-30T07:45:25.771Z,18.06
2019-03-30T07:47:36.582Z,18.20
2019-03-30T07:49:47.477Z,18.49
2019-03-30T07:51:58.325Z,18.54
2019-03-30T07:54:09.198Z,18.56
2019-03-30T07:56:20.140Z,18.54
2019-03-30T07:58:31.005Z,18.74
2019-03-30T08:00:41.958Z,18.85
2019-03-30T08:02:52.848Z,19.00
2019-03-30T08:05:05.499Z,19.09
2019-03-30T08:07:16.378Z,19.22
2019-03-30T08:09:27.397Z,19.33
2019-03-30T08:11:38.376Z,19.05
2019-03-30T08:13:49.244Z,18.93
2019-03-30T08:16:00.318Z,19.07
2019-03-30T08:18:11.150Z,19.12
2019-03-30T08:20:22.026Z,19.20
2019-03-30T08:22:32.975Z,18.92
2019-03-30T08:24:43.849Z,18.84
2019-03-30T08:26:54.816Z,18.86
2019-03-30T08:29:05.661Z,19.00
2019-03-30T08:31:16.540Z,19.12
2019-03-30T08:33:29.353Z,19.08
2019-03-30T08:35:40.211Z,19.06
2019-03-30T08:37:52.972Z,19.12
2019-03-30T08:40:04.276Z,19.32
2019-03-30T08:42:15.220Z,19.16
2019-03-30T08:44:26.076Z,19.36
2019-03-30T08:46:36.968Z,19.58
2019-03-30T08:48:47.810Z,19.72
2019-03-30T08:50:58.753Z,19.63
2019-03-30T08:53:09.628Z,19.91
2019-03-30T08:55:20.558Z,20.09
2019-03-30T08:57:31.410Z,19.99
2019-03-30T08:59:42.251Z,20.13
2019-03-30T09:01:53.246Z,20.01
2019-03-30T09:04:04.201Z,20.15
2019-03-30T09:06:15.195Z,20.42
2019-03-30T09:08:26.106Z,20.52
2019-03-30T09:10:37.069Z,20.54
2019-03-30T09:12:47.902Z,20.62
2019-03-30T09:14:58.752Z,20.82
2019-03-30T09:17:09.825Z,20.89
2019-03-30T09:19:20.670Z,21.01
2019-03-30T09:21:31.645Z,21.02
2019-03-30T09:23:42.490Z,20.95
2019-03-30T09:25:53.354Z,20.97
2019-03-30T09:28:04.218Z,20.98
2019-03-30T09:30:15.457Z,21.10
2019-03-30T09:32:26.814Z,21.12
2019-03-30T09:34:37.658Z,20.85
2019-03-30T09:36:48.858Z,21.06
2019-03-30T09:38:59.988Z,20.88
2019-03-30T09:41:10.947Z,20.94
2019-03-30T09:43:21.833Z,21.11
2019-03-30T09:45:32.678Z,21.35
2019-03-30T09:47:43.665Z,21.42
2019-03-30T09:49:54.525Z,21.34
2019-03-30T09:52:05.489Z,21.32
2019-03-30T09:54:23.479Z,21.45
2019-03-30T09:56:29.301Z,21.49
2019-03-30T09:58:40.301Z,21.55
2019-03-30T10:00:51.175Z,21.56
2019-03-30T10:03:05.778Z,21.76
2019-03-30T10:05:15.007Z,21.76
2019-03-30T10:07:25.908Z,21.97
2019-03-30T10:09:37.593Z,22.02
2019-03-30T10:11:48.423Z,21.92
2019-03-30T10:13:59.309Z,21.76
2019-03-30T10:16:10.472Z,21.66
2019-03-30T10:18:21.354Z,21.78
2019-03-30T10:20:32.216Z,21.88
2019-03-30T10:22:43.197Z,21.97
2019-03-30T10:24:54.167Z,22.06
2019-03-30T10:27:05.011Z,22.19
2019-03-30T10:29:15.994Z,21.85
2019-03-30T10:31:26.856Z,21.88
2019-03-30T10:33:37.721Z,22.03
2019-03-30T10:35:48.576Z,22.08
2019-03-30T10:37:59.528Z,22.06
2019-03-30T10:40:10.610Z,22.04
2019-03-30T10:42:23.484Z,22.07
2019-03-30T10:44:34.357Z,22.01
2019-03-30T10:46:45.213Z,21.94
2019-03-30T10:48:56.085Z,21.99
2019-03-30T10:51:06.918Z,22.13
2019-03-30T10:53:17.815Z,22.20
2019-03-30T10:55:28.688Z,22.22
2019-03-30T10:57:39.525Z,22.23
2019-03-30T10:59:50.492Z,22.25
2019-03-30T11:02:01.563Z,22.17
2019-03-30T11:04:12.427Z,22.19
2019-03-30T11:06:23.269Z,22.06
2019-03-30T11:08:34.219Z,22.10
2019-03-30T11:10:45.096Z,22.12
2019-03-30T11:12:55.990Z,22.19
2019-03-30T11:15:07.166Z,22.13
2019-03-30T11:17:19.463Z,22.13
2019-03-30T11:19:30.481Z,22.19
2019-03-30T11:21:42.206Z,22.20
2019-03-30T11:23:53.118Z,22.25
2019-03-30T11:26:04.472Z,22.16
2019-03-30T11:28:15.331Z,22.15
2019-03-30T11:30:26.227Z,22.12
2019-03-30T11:32:37.166Z,21.97
2019-03-30T11:34:48.029Z,22.06
2019-03-30T11:36:58.891Z,21.98
2019-03-30T11:39:09.831Z,21.99
2019-03-30T11:41:20.854Z,22.05
2019-03-30T11:43:31.779Z,22.02
2019-03-30T11:45:42.658Z,21.88
2019-03-30T11:47:53.485Z,21.93
2019-03-30T11:50:05.420Z,22.02
2019-03-30T11:52:16.288Z,22.12
2019-03-30T11:54:27.145Z,22.23
2019-03-30T11:56:38.040Z,22.37
2019-03-30T11:58:48.868Z,22.11
2019-03-30T12:01:00.048Z,22.09
2019-03-30T12:03:10.904Z,21.95
2019-03-30T12:05:21.756Z,21.90
2019-03-30T12:07:32.607Z,21.87
2019-03-30T12:09:43.478Z,22.00
2019-03-30T12:11:54.346Z,22.06
2019-03-30T12:14:05.208Z,22.03
2019-03-30T12:16:16.112Z,21.93
2019-03-30T12:18:27.058Z,22.03
2019-03-30T12:20:37.907Z,22.05
2019-03-30T12:22:48.897Z,22.12
2019-03-30T12:24:59.776Z,22.12
2019-03-30T12:27:10.729Z,22.00
2019-03-30T12:29:21.625Z,21.89
2019-03-30T12:31:32.461Z,21.94
2019-03-30T12:33:43.348Z,21.97
2019-03-30T12:35:54.188Z,21.82
2019-03-30T12:38:07.052Z,21.79
2019-03-30T12:40:17.998Z,21.73
2019-03-30T12:42:28.871Z,21.67
2019-03-30T12:44:39.738Z,21.62
2019-03-30T12:46:50.582Z,21.61
2019-03-30T12:49:01.496Z,21.54
2019-03-30T12:51:12.343Z,21.41
2019-03-30T12:53:23.221Z,21.24
2019-03-30T12:55:34.165Z,20.96
2019-03-30T12:57:45.174Z,20.83
2019-03-30T12:59:59.160Z,20.81
2019-03-30T13:02:08.886Z,20.60
2019-03-30T13:04:19.772Z,20.61
2019-03-30T13:06:30.641Z,20.72
2019-03-30T13:08:41.488Z,20.77
2019-03-30T13:10:52.335Z,20.88
2019-03-30T13:13:03.274Z,20.97
2019-03-30T13:15:14.344Z,20.94
2019-03-30T13:17:25.287Z,20.80
2019-03-30T13:19:36.266Z,20.76
2019-03-30T13:21:52.751Z,20.73
2019-03-30T13:24:00.465Z,20.76
2019-03-30T13:26:11.404Z,20.77
2019-03-30T13:28:22.262Z,20.81
2019-03-30T13:30:33.227Z,20.82
2019-03-30T13:32:44.086Z,20.80
2019-03-30T13:34:54.975Z,20.79
2019-03-30T13:37:14.095Z,20.70
2019-03-30T13:39:24.942Z,20.73
2019-03-30T13:41:36.012Z,20.68
2019-03-30T13:43:46.853Z,20.72
2019-03-30T13:45:57.923Z,20.72
2019-03-30T13:48:10.660Z,20.69
2019-03-30T13:50:21.539Z,20.72
2019-03-30T13:52:32.459Z,20.73
2019-03-30T13:54:43.323Z,20.68
2019-03-30T13:56:54.165Z,20.61
2019-03-30T13:59:05.035Z,20.57
2019-03-30T14:01:16.016Z,20.58
2019-03-30T14:03:26.892Z,20.57
2019-03-30T14:05:37.754Z,20.52
2019-03-30T14:07:48.693Z,20.55
2019-03-30T14:09:59.796Z,20.58
2019-03-30T14:12:10.753Z,20.61
2019-03-30T14:14:21.602Z,20.62
2019-03-30T14:16:32.503Z,20.62
2019-03-30T14:18:43.339Z,20.63
2019-03-30T14:20:54.211Z,20.65
2019-03-30T14:23:05.071Z,20.64
2019-03-30T14:25:15.948Z,20.65
2019-03-30T14:27:26.829Z,20.64
2019-03-30T14:29:37.681Z,20.64
2019-03-30T14:31:48.575Z,20.65
2019-03-30T14:33:59.473Z,20.55
2019-03-30T14:36:10.332Z,20.55
2019-03-30T14:38:21.185Z,20.49
2019-03-30T14:40:32.038Z,20.49
2019-03-30T14:42:43.015Z,20.48
2019-03-30T14:44:53.980Z,20.46
2019-03-30T14:47:04.833Z,20.46
2019-03-30T14:49:15.769Z,20.46
2019-03-30T14:51:26.624Z,20.45
2019-03-30T14:53:37.489Z,20.38
2019-03-30T14:55:48.415Z,20.39
2019-03-30T14:57:59.308Z,20.37
2019-03-30T15:00:10.633Z,20.38
2019-03-30T15:02:21.616Z,20.38
2019-03-30T15:04:32.484Z,20.34
2019-03-30T15:06:43.344Z,20.36
2019-03-30T15:08:54.187Z,20.32
2019-03-30T15:11:05.057Z,20.31
2019-03-30T15:13:15.927Z,20.24
2019-03-30T15:15:26.768Z,20.24
2019-03-30T15:17:40.649Z,20.21
2019-03-30T15:19:50.585Z,20.15
2019-03-30T15:22:01.436Z,20.15
2019-03-30T15:24:12.289Z,20.22
2019-03-30T15:26:23.237Z,20.24
2019-03-30T15:28:34.121Z,20.24
2019-03-30T15:30:44.969Z,20.25
2019-03-30T15:32:55.940Z,20.25
2019-03-30T15:35:06.904Z,20.16
2019-03-30T15:37:17.743Z,20.25
2019-03-30T15:39:28.617Z,20.26
2019-03-30T15:41:39.564Z,20.26
2019-03-30T15:43:52.176Z,20.27
2019-03-30T15:46:03.301Z,20.28
2019-03-30T15:48:14.168Z,20.20
2019-03-30T15:50:24.999Z,20.19
2019-03-30T15:52:35.871Z,20.24
2019-03-30T15:54:46.849Z,20.26
2019-03-30T15:56:57.957Z,20.25
2019-03-30T15:59:08.897Z,20.30
2019-03-30T16:01:20.007Z,20.14
2019-03-30T16:03:30.972Z,20.05
2019-03-30T16:05:42.222Z,20.04
2019-03-30T16:07:53.181Z,20.07
2019-03-30T16:10:05.159Z,20.03
2019-03-30T16:12:16.116Z,19.96
2019-03-30T16:14:26.955Z,19.84
2019-03-30T16:16:37.933Z,19.83
2019-03-30T16:18:48.799Z,19.75
2019-03-30T16:20:59.757Z,19.64
2019-03-30T16:23:12.721Z,19.59
2019-03-30T16:25:23.696Z,19.55
2019-03-30T16:27:34.547Z,19.54
2019-03-30T16:29:45.495Z,19.52
2019-03-30T16:31:56.421Z,19.50
2019-03-30T16:34:07.209Z,19.43
2019-03-30T16:36:18.215Z,19.35
2019-03-30T16:38:29.232Z,19.30
2019-03-30T16:40:40.228Z,19.23
2019-03-30T16:42:51.054Z,19.19
2019-03-30T16:45:03.383Z,19.18
2019-03-30T16:47:14.366Z,19.10
2019-03-30T16:49:25.285Z,19.06
2019-03-30T16:51:36.157Z,19.02
2019-03-30T16:53:47.487Z,18.98
2019-03-30T16:55:58.498Z,18.92
2019-03-30T16:58:09.366Z,18.86
2019-03-30T17:00:20.315Z,18.80
2019-03-30T17:02:31.205Z,18.76
2019-03-30T17:04:42.047Z,18.75
2019-03-30T17:06:52.918Z,18.85
2019-03-30T17:09:04.764Z,18.90
2019-03-30T17:11:15.740Z,18.84
2019-03-30T17:13:26.621Z,18.74
2019-03-30T17:15:37.484Z,18.66
2019-03-30T17:17:48.371Z,18.58
2019-03-30T17:19:59.214Z,18.50
2019-03-30T17:22:10.081Z,18.42
2019-03-30T17:24:21.044Z,18.36
2019-03-30T17:26:31.892Z,18.32
2019-03-30T17:28:42.763Z,18.27
2019-03-30T17:30:53.633Z,18.22
2019-03-30T17:33:04.690Z,18.18
2019-03-30T17:35:15.651Z,18.14
2019-03-30T17:37:26.652Z,18.03
2019-03-30T17:39:37.505Z,17.85
2019-03-30T17:41:48.403Z,17.70
2019-03-30T17:43:59.270Z,17.54
2019-03-30T17:46:10.113Z,17.37
2019-03-30T17:48:22.975Z,17.21
2019-03-30T17:50:33.930Z,17.07
2019-03-30T17:52:44.968Z,16.92
2019-03-30T17:54:55.789Z,16.80
2019-03-30T17:57:06.725Z,16.72
2019-03-30T17:59:19.508Z,16.59
2019-03-30T18:01:30.542Z,16.49
2019-03-30T18:03:41.468Z,16.43
2019-03-30T18:05:52.303Z,16.31
2019-03-30T18:08:03.277Z,16.22
2019-03-30T18:10:14.433Z,16.13
2019-03-30T18:12:25.380Z,16.00
2019-03-30T18:14:36.265Z,15.92
2019-03-30T18:16:47.112Z,15.84
2019-03-30T18:18:57.998Z,15.76
2019-03-30T18:21:08.865Z,15.61
2019-03-30T18:23:19.710Z,15.43
2019-03-30T18:25:30.574Z,15.34
2019-03-30T18:27:41.411Z,15.28
2019-03-30T18:29:52.265Z,15.18
2019-03-30T18:32:03.335Z,15.07
2019-03-30T18:34:14.531Z,14.94
2019-03-30T18:36:25.469Z,14.78
2019-03-30T18:38:37.563Z,14.69
2019-03-30T18:40:48.502Z,14.68
2019-03-30T18:43:01.151Z,14.53
2019-03-30T18:45:15.845Z,14.23
2019-03-30T18:47:26.887Z,14.05
2019-03-30T18:49:37.771Z,13.98
2019-03-30T18:51:48.772Z,14.00
2019-03-30T18:53:59.870Z,13.96
2019-03-30T18:56:10.702Z,13.94
2019-03-30T18:58:21.674Z,13.92
2019-03-30T19:00:32.644Z,13.75
2019-03-30T19:02:45.401Z,13.63
2019-03-30T19:04:56.280Z,13.53
2019-03-30T19:07:07.151Z,13.39
2019-03-30T19:09:18.008Z,13.16
2019-03-30T19:11:28.926Z,12.99
2019-03-30T19:13:39.757Z,12.95
2019-03-30T19:15:50.999Z,12.88
2019-03-30T19:18:01.865Z,12.83
2019-03-30T19:20:12.842Z,12.75
2019-03-30T19:22:23.822Z,12.72
2019-03-30T19:24:34.673Z,12.72
2019-03-30T19:26:45.567Z,12.60
2019-03-30T19:28:56.971Z,12.55
2019-03-30T19:31:07.900Z,12.55
2019-03-30T19:33:18.760Z,12.45
2019-03-30T19:35:29.653Z,12.41
2019-03-30T19:37:40.509Z,12.31
2019-03-30T19:39:51.377Z,12.23
2019-03-30T19:42:02.829Z,12.18
2019-03-30T19:44:15.564Z,12.10
2019-03-30T19:46:26.916Z,12.09
2019-03-30T19:48:37.797Z,12.09
2019-03-30T19:50:48.664Z,11.98
2019-03-30T19:52:59.542Z,11.98
2019-03-30T19:55:10.514Z,11.89
2019-03-30T19:57:21.411Z,11.71
2019-03-30T19:59:32.246Z,11.66
2019-03-30T20:01:43.139Z,11.65
2019-03-30T20:03:54.183Z,11.57
2019-03-30T20:06:04.998Z,11.44
2019-03-30T20:08:16.078Z,11.34
2019-03-30T20:10:27.014Z,11.24
2019-03-30T20:12:37.888Z,11.28
2019-03-30T20:14:48.855Z,11.27
2019-03-30T20:16:59.751Z,11.20
2019-03-30T20:19:12.755Z,11.21
2019-03-30T20:21:23.484Z,11.24
2019-03-30T20:23:34.414Z,11.25
2019-03-30T20:25:45.253Z,11.23
2019-03-30T20:27:56.141Z,11.21
2019-03-30T20:30:08.384Z,11.14
2019-03-30T20:32:19.250Z,11.14
2019-03-30T20:34:30.127Z,11.11
2019-03-30T20:36:41.100Z,11.17
2019-03-30T20:38:51.975Z,11.16
2019-03-30T20:41:02.912Z,11.15
2019-03-30T20:43:13.879Z,11.13
2019-03-30T20:45:24.716Z,11.11
2019-03-30T20:47:35.712Z,11.06
2019-03-30T20:49:46.589Z,11.00
2019-03-30T20:51:57.482Z,11.00
2019-03-30T20:54:08.456Z,11.03
2019-03-30T20:56:19.306Z,11.00
2019-03-30T20:58:30.364Z,11.01
2019-03-30T21:00:41.314Z,10.99
2019-03-30T21:02:52.185Z,10.92
2019-03-30T21:05:04.753Z,10.88
2019-03-30T21:07:15.628Z,10.81
2019-03-30T21:09:26.593Z,10.80
2019-03-30T21:11:37.428Z,10.73
2019-03-30T21:13:48.422Z,10.61
2019-03-30T21:15:59.321Z,10.61
2019-03-30T21:18:10.249Z,10.48
2019-03-30T21:20:23.126Z,10.43
2019-03-30T21:22:34.225Z,10.41
2019-03-30T21:24:45.211Z,10.46
2019-03-30T21:26:56.061Z,10.45
2019-03-30T21:29:07.026Z,10.37
2019-03-30T21:31:17.882Z,10.38
2019-03-30T21:33:28.735Z,10.37
2019-03-30T21:35:39.621Z,10.34
2019-03-30T21:37:50.596Z,10.31
2019-03-30T21:40:02.280Z,10.31
2019-03-30T21:42:13.150Z,10.23
2019-03-30T21:44:23.996Z,10.10
2019-03-30T21:46:35.080Z,9.99
2019-03-30T21:48:46.030Z,9.91
2019-03-30T21:50:57.031Z,9.86
2019-03-30T21:53:07.872Z,9.83
2019-03-30T21:55:18.725Z,9.88
2019-03-30T21:57:29.605Z,9.86
2019-03-30T21:59:40.566Z,9.70
2019-03-30T22:01:53.336Z,9.67
2019-03-30T22:04:04.310Z,9.70
2019-03-30T22:06:15.396Z,9.71
2019-03-30T22:08:26.465Z,9.65
2019-03-30T22:10:37.324Z,9.60
2019-03-30T22:12:48.306Z,9.58
2019-03-30T22:14:59.162Z,9.55
2019-03-30T22:17:10.125Z,9.49
2019-03-30T22:19:21.083Z,9.51
2019-03-30T22:21:31.957Z,9.52
2019-03-30T22:23:42.913Z,9.53
2019-03-30T22:25:53.748Z,9.55
2019-03-30T22:28:04.631Z,9.58
2019-03-30T22:30:24.575Z,9.58
2019-03-30T22:32:28.514Z,9.47
2019-03-30T22:34:39.373Z,9.43
2019-03-30T22:36:50.263Z,9.41
2019-03-30T22:39:01.127Z,9.35
2019-03-30T22:41:11.962Z,9.26
2019-03-30T22:43:23.097Z,9.22
2019-03-30T22:45:34.042Z,9.15
2019-03-30T22:47:44.918Z,9.01
2019-03-30T22:49:55.760Z,8.90
2019-03-30T22:52:06.623Z,8.89
2019-03-30T22:54:17.582Z,8.90
2019-03-30T22:56:28.451Z,8.97
2019-03-30T22:58:39.448Z,9.04
2019-03-30T23:00:59.013Z,9.08
2019-03-30T23:03:10.956Z,9.05
2019-03-30T23:05:21.941Z,9.00
2019-03-30T23:07:34.742Z,8.98
2019-03-30T23:09:45.619Z,8.83
2019-03-30T23:11:56.453Z,8.76
2019-03-30T23:14:07.423Z,8.71
2019-03-30T23:16:18.361Z,8.67
2019-03-30T23:18:29.308Z,8.67
2019-03-30T23:20:40.150Z,8.67
2019-03-30T23:22:51.003Z,8.63
2019-03-30T23:25:03.260Z,8.61
2019-03-30T23:27:14.114Z,8.63
2019-03-30T23:29:24.973Z,8.70
2019-03-30T23:31:35.805Z,8.72
2019-03-30T23:33:46.667Z,8.58
2019-03-30T23:35:57.631Z,8.38
2019-03-30T23:38:08.708Z,8.26
2019-03-30T23:40:19.665Z,8.05
2019-03-30T23:42:30.503Z,7.97
2019-03-30T23:44:41.357Z,8.04
2019-03-30T23:46:52.299Z,8.06
2019-03-30T23:49:03.265Z,8.05
2019-03-30T23:51:14.126Z,8.08
2019-03-30T23:53:25.010Z,8.07
2019-03-30T23:55:35.886Z,8.11
2019-03-30T23:57:46.739Z,8.15
2019-03-30T23:59:57.603Z,8.11
